Time;durP1;ratioP1;P1;durP2;ratioP2;P2;SDS_P1;SDS_P2;PMS_P1;PMS_P2;Temp;Humidity;BMP_temperature;BMP_pressure;BME280_temperature;BME280_humidity;BME280_pressure;Samples;Min_cycle;Max_cycle;Signal;HPM_P1;HPM_P2
2022/04/30 00:02:01;;;;;;;;;;;5.20;99.90;;;;;;5084178;28;19912;-69
2022/04/30 00:04:27;;;;;;;;;;;5.10;99.90;;;;;;5079326;28;19915;-69
2022/04/30 00:06:52;;;;;;;;;;;5.10;99.90;;;;;;5085343;28;20266;-69
2022/04/30 00:09:18;;;;;;;;;;;5.10;99.90;;;;;;5083718;28;19977;-69
2022/04/30 00:11:43;;;;;;;;;;;5.10;99.90;;;;;;5078094;28;19908;-69
2022/04/30 00:14:09;;;;;;;;;;;5.00;99.90;;;;;;5080008;28;20296;-70
2022/04/30 00:16:35;;;;;;;;;;;4.90;99.90;;;;;;5079782;28;19962;-68
2022/04/30 00:19:00;;;;;;;;;;;4.90;99.90;;;;;;5086663;28;19919;-70
2022/04/30 00:21:26;;;;;;;;;;;4.80;99.90;;;;;;5083328;28;20289;-68
2022/04/30 00:23:52;;;;;;;;;;;4.80;99.90;;;;;;5078395;28;19915;-69
2022/04/30 00:26:18;;;;;;;;;;;4.70;99.90;;;;;;5079432;28;20323;-69
2022/04/30 00:28:44;;;;;;;;;;;4.70;99.90;;;;;;5081465;28;20050;-69
2022/04/30 00:31:10;;;;;;;;;;;4.70;99.90;;;;;;5087357;28;19908;-69
2022/04/30 00:33:35;;;;;;;;;;;4.70;99.90;;;;;;5084254;28;20268;-69
2022/04/30 00:36:02;;;;;;;;;;;4.70;99.90;;;;;;5083477;28;19973;-69
2022/04/30 00:38:27;;;;;;;;;;;4.70;99.90;;;;;;5081022;28;19916;-69
2022/04/30 00:40:53;;;;;;;;;;;4.60;99.90;;;;;;5097247;28;20277;-69
2022/04/30 00:43:18;;;;;;;;;;;4.50;99.90;;;;;;5086326;28;19909;-69
2022/04/30 00:45:47;;;;;;;;;;;4.50;99.90;;;;;;5085904;28;19916;-68
2022/04/30 00:48:13;;;;;;;;;;;4.50;99.90;;;;;;5090800;28;19908;-69
2022/04/30 00:50:39;;;;;;;;;;;4.50;99.90;;;;;;5078058;28;20021;-68
2022/04/30 00:53:05;;;;;;;;;;;4.50;99.90;;;;;;5081361;28;19908;-69
2022/04/30 00:55:31;;;;;;;;;;;4.40;99.90;;;;;;5090322;28;19980;-69
2022/04/30 00:57:58;;;;;;;;;;;4.40;99.90;;;;;;5084915;28;19916;-70
2022/04/30 01:00:26;;;;;;;;;;;4.30;99.90;;;;;;5085359;28;19984;-69
2022/04/30 01:02:52;;;;;;;;;;;4.30;99.90;;;;;;5084924;28;19913;-69
2022/04/30 01:05:17;;;;;;;;;;;4.40;99.90;;;;;;5073657;28;19912;-69
2022/04/30 01:07:43;;;;;;;;;;;4.30;99.90;;;;;;5073238;28;19914;-69
2022/04/30 01:10:09;;;;;;;;;;;4.30;99.90;;;;;;5089390;28;19954;-69
2022/04/30 01:12:35;;;;;;;;;;;4.20;99.90;;;;;;5086928;28;20356;-69
2022/04/30 01:15:04;;;;;;;;;;;4.30;99.90;;;;;;5088914;28;19991;-69
2022/04/30 01:17:30;;;;;;;;;;;4.30;99.90;;;;;;5073575;28;19939;-69
2022/04/30 01:19:56;;;;;;;;;;;4.10;99.90;;;;;;5087346;28;19908;-69
2022/04/30 01:22:22;;;;;;;;;;;4.10;99.90;;;;;;5083640;28;19915;-69
2022/04/30 01:24:54;;;;;;;;;;;4.00;99.90;;;;;;5080440;28;20266;-69
2022/04/30 01:27:22;;;;;;;;;;;4.10;99.90;;;;;;5084128;28;19915;-69
2022/04/30 01:29:47;;;;;;;;;;;4.10;99.90;;;;;;5088116;28;20357;-70
2022/04/30 01:37:41;;;;;;;;;;;4.10;99.90;;;;;;5082600;28;19985;-69
2022/04/30 01:40:07;;;;;;;;;;;4.10;99.90;;;;;;5075953;28;19908;-68
2022/04/30 01:42:36;;;;;;;;;;;4.10;99.90;;;;;;5081849;28;19953;-68
2022/04/30 01:45:04;;;;;;;;;;;4.00;99.90;;;;;;5082482;28;19908;-67
2022/04/30 01:47:30;;;;;;;;;;;3.90;99.90;;;;;;5082840;28;19999;-68
2022/04/30 01:49:55;;;;;;;;;;;3.90;99.90;;;;;;5075728;28;19912;-68
2022/04/30 01:52:21;;;;;;;;;;;3.80;99.90;;;;;;5078076;28;19931;-68
2022/04/30 01:54:47;;;;;;;;;;;3.70;99.90;;;;;;5081383;28;20271;-69
2022/04/30 01:57:15;;;;;;;;;;;3.60;99.90;;;;;;5093252;28;19915;-69
2022/04/30 01:59:41;;;;;;;;;;;3.50;99.90;;;;;;5085535;28;20006;-68
2022/04/30 02:02:07;;;;;;;;;;;3.50;99.90;;;;;;5090934;28;20371;-68
2022/04/30 02:04:34;;;;;;;;;;;3.50;99.90;;;;;;5091841;28;20379;-67
2022/04/30 02:07:01;;;;;;;;;;;3.40;99.90;;;;;;5085724;28;20539;-69
2022/04/30 02:09:28;;;;;;;;;;;3.30;99.90;;;;;;5088086;28;19953;-68
2022/04/30 02:11:59;;;;;;;;;;;3.30;99.90;;;;;;5086725;28;19934;-68
2022/04/30 02:14:27;;;;;;;;;;;3.20;99.90;;;;;;5087594;28;20261;-69
2022/04/30 02:16:52;;;;;;;;;;;3.30;99.90;;;;;;5088632;28;20311;-68
2022/04/30 02:19:19;;;;;;;;;;;3.30;99.90;;;;;;5086822;28;19908;-69
2022/04/30 02:21:45;;;;;;;;;;;3.30;99.90;;;;;;5089246;28;19916;-69
2022/04/30 02:24:11;;;;;;;;;;;3.30;99.90;;;;;;5090100;28;19912;-69
2022/04/30 02:26:36;;;;;;;;;;;3.20;99.90;;;;;;5091508;28;19908;-68
2022/04/30 02:29:02;;;;;;;;;;;3.20;99.90;;;;;;5090097;28;19992;-68
2022/04/30 02:31:28;;;;;;;;;;;3.10;99.90;;;;;;5090630;28;19914;-68
2022/04/30 02:33:57;;;;;;;;;;;3.00;99.90;;;;;;5080117;28;19995;-69
2022/04/30 02:36:26;;;;;;;;;;;3.10;99.90;;;;;;5088151;28;19975;-70
2022/04/30 02:38:53;;;;;;;;;;;3.20;99.90;;;;;;5089824;28;19918;-69
2022/04/30 02:41:21;;;;;;;;;;;3.10;99.90;;;;;;5086764;28;19908;-68
2022/04/30 02:43:48;;;;;;;;;;;3.10;99.90;;;;;;5104324;28;19923;-68
2022/04/30 02:46:14;;;;;;;;;;;3.20;99.90;;;;;;5082188;28;19912;-68
2022/04/30 02:48:40;;;;;;;;;;;3.30;99.90;;;;;;5087124;28;19961;-69
2022/04/30 02:51:05;;;;;;;;;;;3.30;99.90;;;;;;5087156;28;20025;-69
2022/04/30 02:53:31;;;;;;;;;;;3.20;99.90;;;;;;5073652;28;19923;-68
2022/04/30 02:55:56;;;;;;;;;;;3.10;99.90;;;;;;5074123;28;19956;-69
2022/04/30 03:01:06;;;;;;;;;;;3.20;99.90;;;;;;5090239;28;19914;-69
2022/04/30 03:03:32;;;;;;;;;;;3.20;99.90;;;;;;5090524;28;19908;-68
2022/04/30 03:05:58;;;;;;;;;;;3.10;99.90;;;;;;5083729;28;19951;-69
2022/04/30 03:08:26;;;;;;;;;;;3.20;99.90;;;;;;5103626;28;20365;-68
2022/04/30 03:10:56;;;;;;;;;;;3.20;99.90;;;;;;5094185;28;19908;-69
2022/04/30 03:13:22;;;;;;;;;;;3.20;99.90;;;;;;5088765;28;20011;-69
2022/04/30 03:15:49;;;;;;;;;;;3.20;99.90;;;;;;5078456;28;19916;-68
2022/04/30 03:23:43;;;;;;;;;;;3.20;99.90;;;;;;5086185;28;19943;-68
2022/04/30 03:26:11;;;;;;;;;;;3.10;99.90;;;;;;5079506;28;19955;-69
2022/04/30 03:28:37;;;;;;;;;;;3.00;99.90;;;;;;5080411;28;19912;-69
2022/04/30 03:31:03;;;;;;;;;;;3.00;99.90;;;;;;5093117;28;20422;-68
2022/04/30 03:33:29;;;;;;;;;;;2.80;99.90;;;;;;5090122;28;20341;-70
2022/04/30 03:35:55;;;;;;;;;;;2.90;99.90;;;;;;5080635;28;19963;-69
2022/04/30 03:38:20;;;;;;;;;;;2.80;99.90;;;;;;5084505;28;19970;-69
2022/04/30 03:40:46;;;;;;;;;;;2.90;99.90;;;;;;5082261;28;20307;-70
2022/04/30 03:43:12;;;;;;;;;;;2.90;99.90;;;;;;5090037;28;19908;-68
2022/04/30 03:45:38;;;;;;;;;;;2.90;99.90;;;;;;5089975;28;19908;-70
2022/04/30 03:48:04;;;;;;;;;;;2.80;99.90;;;;;;5086564;28;19908;-69
2022/04/30 03:50:29;;;;;;;;;;;3.00;99.90;;;;;;5084166;28;19959;-71
2022/04/30 03:52:55;;;;;;;;;;;2.90;99.90;;;;;;5080309;28;19955;-68
2022/04/30 03:55:20;;;;;;;;;;;2.80;99.90;;;;;;5090382;28;19915;-68
2022/04/30 03:57:46;;;;;;;;;;;2.70;99.90;;;;;;5088348;28;19920;-69
2022/04/30 04:00:11;;;;;;;;;;;2.70;99.90;;;;;;5080903;28;20354;-69
2022/04/30 04:02:39;;;;;;;;;;;2.80;99.90;;;;;;5085980;28;19908;-70
2022/04/30 04:05:10;;;;;;;;;;;2.70;99.90;;;;;;5085810;28;19916;-69
2022/04/30 04:07:36;;;;;;;;;;;2.80;99.90;;;;;;5081937;28;19908;-68
2022/04/30 04:10:02;;;;;;;;;;;2.80;99.90;;;;;;5077752;28;20276;-68
2022/04/30 04:12:28;;;;;;;;;;;2.90;99.90;;;;;;5082334;28;19908;-69
2022/04/30 04:17:41;;;;;;;;;;;2.90;99.90;;;;;;5079576;28;20396;-69
2022/04/30 04:20:07;;;;;;;;;;;3.10;99.90;;;;;;5078942;28;19930;-69
2022/04/30 04:22:33;;;;;;;;;;;3.10;99.90;;;;;;5083626;28;19915;-69
2022/04/30 04:27:42;;;;;;;;;;;3.00;99.90;;;;;;5086680;28;19915;-70
2022/04/30 04:30:08;;;;;;;;;;;2.90;99.90;;;;;;5078760;28;19908;-70
2022/04/30 04:32:34;;;;;;;;;;;2.80;99.90;;;;;;5084500;28;20386;-69
2022/04/30 04:34:59;;;;;;;;;;;2.70;99.90;;;;;;5091162;28;19962;-68
2022/04/30 04:37:25;;;;;;;;;;;2.60;99.90;;;;;;5088868;28;19912;-69
2022/04/30 04:39:50;;;;;;;;;;;2.50;99.90;;;;;;5082848;28;19919;-69
2022/04/30 04:42:16;;;;;;;;;;;2.50;99.90;;;;;;5080907;28;19915;-69
2022/04/30 04:44:42;;;;;;;;;;;2.40;99.90;;;;;;5084749;28;19908;-69
2022/04/30 04:47:07;;;;;;;;;;;2.40;99.90;;;;;;5089388;28;20361;-68
2022/04/30 04:49:33;;;;;;;;;;;2.40;99.90;;;;;;5086791;28;19915;-69
2022/04/30 04:52:01;;;;;;;;;;;2.40;99.90;;;;;;5088756;28;20308;-69
2022/04/30 04:54:27;;;;;;;;;;;2.30;99.90;;;;;;5088803;28;19908;-69
2022/04/30 04:56:52;;;;;;;;;;;2.30;99.90;;;;;;5082115;28;19911;-68
2022/04/30 04:59:18;;;;;;;;;;;2.20;99.90;;;;;;5079370;28;19920;-69
2022/04/30 05:01:43;;;;;;;;;;;2.30;99.90;;;;;;5079996;28;19919;-70
2022/04/30 05:04:09;;;;;;;;;;;2.30;99.90;;;;;;5089198;28;20365;-69
2022/04/30 05:06:35;;;;;;;;;;;2.20;99.90;;;;;;5075257;28;19910;-68
2022/04/30 05:09:00;;;;;;;;;;;2.20;99.90;;;;;;5071910;28;20354;-70
2022/04/30 05:11:26;;;;;;;;;;;2.20;99.90;;;;;;5085682;28;20003;-67
2022/04/30 05:13:51;;;;;;;;;;;2.20;99.90;;;;;;5085193;28;20415;-68
2022/04/30 05:16:17;;;;;;;;;;;2.20;99.90;;;;;;5085200;28;19981;-70
2022/04/30 05:18:43;;;;;;;;;;;2.10;99.90;;;;;;5087822;28;19907;-69
2022/04/30 05:21:08;;;;;;;;;;;2.30;99.90;;;;;;5085725;28;19912;-69
2022/04/30 05:23:34;;;;;;;;;;;2.40;99.90;;;;;;5086620;28;19936;-70
2022/04/30 05:25:59;;;;;;;;;;;2.40;99.90;;;;;;5070946;28;19927;-70
2022/04/30 05:28:25;;;;;;;;;;;2.50;99.90;;;;;;5077413;28;19916;-69
2022/04/30 05:30:50;;;;;;;;;;;2.40;99.90;;;;;;5086635;28;19914;-69
2022/04/30 05:33:16;;;;;;;;;;;2.50;99.90;;;;;;5082806;28;19908;-71
2022/04/30 05:35:42;;;;;;;;;;;2.40;99.90;;;;;;5087253;28;19912;-69
2022/04/30 05:38:07;;;;;;;;;;;2.60;99.90;;;;;;5088854;28;19920;-70
2022/04/30 05:40:33;;;;;;;;;;;2.70;99.90;;;;;;5090950;28;20240;-71
2022/04/30 05:42:58;;;;;;;;;;;2.80;99.90;;;;;;5087966;28;19908;-70
2022/04/30 05:45:24;;;;;;;;;;;2.90;99.90;;;;;;5079851;28;20316;-69
2022/04/30 05:47:50;;;;;;;;;;;3.00;99.90;;;;;;5084794;28;20280;-70
2022/04/30 05:50:16;;;;;;;;;;;3.10;99.90;;;;;;5089673;28;19961;-69
2022/04/30 05:52:42;;;;;;;;;;;3.30;99.90;;;;;;5087741;28;19912;-68
2022/04/30 05:55:08;;;;;;;;;;;3.40;99.90;;;;;;5089624;28;20308;-69
2022/04/30 05:57:33;;;;;;;;;;;3.40;99.90;;;;;;5083919;28;19927;-68
2022/04/30 05:59:59;;;;;;;;;;;3.50;99.90;;;;;;5088891;28;19960;-69
2022/04/30 06:02:25;;;;;;;;;;;3.70;99.90;;;;;;5085699;28;19943;-68
2022/04/30 06:04:50;;;;;;;;;;;3.80;99.90;;;;;;5079908;28;20006;-68
2022/04/30 06:09:44;;;;;;;;;;;4.10;99.90;;;;;;4991187;22;19920;-68
2022/04/30 06:12:10;;;;;;;;;;;4.20;99.90;;;;;;5043924;28;20337;-70
2022/04/30 06:14:35;;;;;;;;;;;4.20;99.90;;;;;;5048946;28;20278;-68
2022/04/30 06:17:01;;;;;;;;;;;4.40;99.90;;;;;;5034221;28;20029;-68
2022/04/30 06:19:26;;;;;;;;;;;4.50;99.90;;;;;;5045884;28;20366;-68
2022/04/30 06:21:53;;;;;;;;;;;4.60;99.90;;;;;;5048971;28;19915;-68
2022/04/30 06:24:18;;;;;;;;;;;4.80;99.90;;;;;;5049986;28;19916;-69
2022/04/30 06:26:44;;;;;;;;;;;4.90;99.90;;;;;;5050743;28;19915;-69
2022/04/30 06:29:10;;;;;;;;;;;5.00;99.90;;;;;;5053092;28;19951;-68
2022/04/30 06:31:36;;;;;;;;;;;5.20;99.90;;;;;;5045123;28;19909;-70
2022/04/30 06:34:02;;;;;;;;;;;5.30;99.90;;;;;;5049676;28;20006;-71
2022/04/30 06:36:28;;;;;;;;;;;5.30;99.90;;;;;;5047360;28;20334;-70
2022/04/30 06:38:56;;;;;;;;;;;5.40;99.90;;;;;;5050078;28;19935;-70
2022/04/30 06:41:22;;;;;;;;;;;5.40;99.90;;;;;;5052217;28;20366;-69
2022/04/30 06:43:49;;;;;;;;;;;5.50;99.90;;;;;;5050866;28;19909;-70
2022/04/30 06:46:15;;;;;;;;;;;5.70;99.90;;;;;;5047934;28;19996;-69
2022/04/30 06:48:41;;;;;;;;;;;5.80;99.90;;;;;;5052794;28;19995;-68
2022/04/30 06:51:06;;;;;;;;;;;5.90;99.90;;;;;;5051269;28;20207;-69
2022/04/30 06:59:11;;;;;;;;;;;6.30;99.90;;;;;;5048271;28;19963;-70
2022/04/30 07:01:42;;;;;;;;;;;6.50;99.90;;;;;;5047109;28;19919;-70
2022/04/30 07:04:09;;;;;;;;;;;6.60;99.90;;;;;;5049182;28;20008;-69
2022/04/30 07:06:35;;;;;;;;;;;6.70;99.90;;;;;;5050269;28;19939;-68
2022/04/30 07:09:01;;;;;;;;;;;6.70;99.90;;;;;;5051063;28;20285;-70
2022/04/30 07:11:27;;;;;;;;;;;6.70;99.90;;;;;;5047170;28;19909;-70
2022/04/30 07:13:53;;;;;;;;;;;6.70;99.90;;;;;;5047021;28;20422;-69
2022/04/30 07:16:19;;;;;;;;;;;6.80;99.90;;;;;;5052609;28;19916;-68
2022/04/30 07:18:47;;;;;;;;;;;7.00;99.90;;;;;;5050313;28;19983;-68
2022/04/30 07:21:13;;;;;;;;;;;7.10;99.90;;;;;;5032483;28;20339;-68
2022/04/30 07:23:38;;;;;;;;;;;7.10;99.90;;;;;;5041013;28;19998;-67
2022/04/30 07:26:04;;;;;;;;;;;7.10;99.90;;;;;;5034446;28;20346;-68
2022/04/30 07:28:35;;;;;;;;;;;7.10;99.90;;;;;;5046152;28;19912;-68
2022/04/30 07:31:02;;;;;;;;;;;7.20;99.90;;;;;;5044229;28;19908;-68
2022/04/30 07:33:28;;;;;;;;;;;7.40;99.90;;;;;;5043312;28;19916;-68
2022/04/30 07:35:54;;;;;;;;;;;7.50;99.90;;;;;;5044089;28;20344;-68
2022/04/30 07:38:20;;;;;;;;;;;7.70;99.90;;;;;;5049834;28;20003;-70
2022/04/30 07:40:45;;;;;;;;;;;7.80;99.90;;;;;;5045670;28;20015;-69
2022/04/30 07:43:11;;;;;;;;;;;7.90;99.90;;;;;;5046833;28;19991;-68
2022/04/30 07:45:37;;;;;;;;;;;7.90;99.90;;;;;;5049257;28;19916;-69
2022/04/30 07:48:03;;;;;;;;;;;8.30;99.90;;;;;;5051128;28;19916;-71
2022/04/30 07:50:35;;;;;;;;;;;8.50;99.90;;;;;;5045478;28;19949;-70
2022/04/30 07:53:07;;;;;;;;;;;8.40;99.90;;;;;;5046103;28;19944;-69
2022/04/30 07:55:33;;;;;;;;;;;8.60;99.90;;;;;;5048528;28;19923;-70
2022/04/30 07:57:59;;;;;;;;;;;8.80;99.90;;;;;;5046443;28;19952;-69
2022/04/30 08:00:25;;;;;;;;;;;8.80;99.90;;;;;;5046736;28;19936;-68
2022/04/30 08:02:54;;;;;;;;;;;9.00;99.90;;;;;;5050901;28;19961;-70
2022/04/30 08:05:19;;;;;;;;;;;9.10;99.90;;;;;;5050119;28;20355;-70
2022/04/30 08:07:45;;;;;;;;;;;9.20;99.90;;;;;;5046218;28;19938;-67
2022/04/30 08:10:10;;;;;;;;;;;9.30;99.90;;;;;;5048913;28;19948;-69
2022/04/30 08:12:36;;;;;;;;;;;9.40;99.90;;;;;;5030545;28;19905;-69
2022/04/30 08:15:02;;;;;;;;;;;9.50;99.90;;;;;;5049987;28;19916;-69
2022/04/30 08:17:29;;;;;;;;;;;9.50;99.90;;;;;;5030834;28;20372;-68
2022/04/30 08:19:54;;;;;;;;;;;9.70;99.90;;;;;;5049141;28;19908;-70
2022/04/30 08:22:20;;;;;;;;;;;9.70;99.90;;;;;;5051471;28;19911;-70
2022/04/30 08:24:48;;;;;;;;;;;9.90;99.90;;;;;;5045563;28;19915;-69
2022/04/30 08:27:14;;;;;;;;;;;10.00;99.90;;;;;;5050080;28;20003;-70
2022/04/30 08:29:39;;;;;;;;;;;10.10;99.90;;;;;;5045122;28;19920;-69
2022/04/30 08:32:05;;;;;;;;;;;10.20;99.90;;;;;;5045260;28;19916;-69
2022/04/30 08:34:32;;;;;;;;;;;10.20;99.90;;;;;;5023571;28;19919;-70
2022/04/30 08:36:57;;;;;;;;;;;10.30;99.90;;;;;;5047811;28;20358;-69
2022/04/30 08:39:23;;;;;;;;;;;10.30;99.90;;;;;;5047483;28;19916;-70
2022/04/30 08:41:49;;;;;;;;;;;10.40;99.90;;;;;;5032117;28;19913;-70
2022/04/30 08:44:15;;;;;;;;;;;10.40;99.90;;;;;;5044029;28;19916;-69
2022/04/30 08:46:41;;;;;;;;;;;10.50;99.90;;;;;;5032206;28;19920;-70
2022/04/30 08:49:07;;;;;;;;;;;10.60;99.90;;;;;;5046350;28;19915;-69
2022/04/30 08:51:32;;;;;;;;;;;10.60;99.90;;;;;;5047943;28;20325;-69
2022/04/30 08:53:58;;;;;;;;;;;10.70;99.90;;;;;;5044264;28;19915;-70
2022/04/30 08:56:24;;;;;;;;;;;10.70;99.90;;;;;;5046809;28;19914;-70
2022/04/30 08:59:10;;;;;;;;;;;10.70;99.90;;;;;;5041307;28;20362;-70
2022/04/30 09:01:49;;;;;;;;;;;10.80;99.90;;;;;;5047494;28;19985;-70
2022/04/30 09:04:14;;;;;;;;;;;10.90;99.90;;;;;;5047866;28;20319;-70
2022/04/30 09:06:47;;;;;;;;;;;10.90;99.90;;;;;;5047010;28;19931;-70
2022/04/30 09:09:22;;;;;;;;;;;10.90;99.90;;;;;;5040566;28;19977;-69
2022/04/30 09:11:48;;;;;;;;;;;11.10;99.90;;;;;;5050401;28;20020;-69
2022/04/30 09:14:21;;;;;;;;;;;11.00;99.90;;;;;;5048384;28;19912;-70
2022/04/30 09:16:47;;;;;;;;;;;11.00;99.90;;;;;;5045473;28;20019;-69
2022/04/30 09:19:15;;;;;;;;;;;11.00;99.90;;;;;;5050987;28;19940;-70
2022/04/30 09:21:47;;;;;;;;;;;11.00;99.90;;;;;;5038616;28;20000;-68
2022/04/30 09:24:14;;;;;;;;;;;11.10;99.90;;;;;;5032364;28;19959;-69
2022/04/30 09:26:41;;;;;;;;;;;11.20;99.90;;;;;;5029853;28;19974;-69
2022/04/30 09:29:22;;;;;;;;;;;11.40;99.90;;;;;;5049563;28;19916;-70
2022/04/30 09:31:51;;;;;;;;;;;11.70;99.90;;;;;;5035123;28;19909;-69
2022/04/30 09:39:49;;;;;;;;;;;11.70;99.90;;;;;;5030471;28;19956;-69
2022/04/30 09:42:14;;;;;;;;;;;11.80;99.90;;;;;;5039677;28;19920;-69
2022/04/30 09:44:43;;;;;;;;;;;11.80;99.90;;;;;;5050859;28;19908;-69
2022/04/30 09:47:09;;;;;;;;;;;11.90;99.90;;;;;;5030083;28;20007;-69
2022/04/30 09:55:03;;;;;;;;;;;12.00;99.90;;;;;;5042866;28;19992;-70
2022/04/30 09:57:30;;;;;;;;;;;12.00;99.90;;;;;;5045961;28;19999;-70
2022/04/30 10:00:00;;;;;;;;;;;12.10;99.90;;;;;;5042471;28;19908;-69
2022/04/30 10:02:26;;;;;;;;;;;12.40;99.90;;;;;;5016507;28;19916;-70
2022/04/30 10:04:52;;;;;;;;;;;12.40;99.90;;;;;;5005172;28;19923;-69
2022/04/30 10:07:19;;;;;;;;;;;12.40;99.90;;;;;;5047777;28;20003;-69
2022/04/30 10:10:03;;;;;;;;;;;12.40;99.90;;;;;;5047899;28;20016;-69
2022/04/30 10:12:47;;;;;;;;;;;12.50;99.90;;;;;;5039562;28;20231;-70
2022/04/30 10:15:28;;;;;;;;;;;12.60;99.90;;;;;;5043376;28;19995;-69
2022/04/30 10:17:54;;;;;;;;;;;12.70;99.90;;;;;;5049478;28;19916;-69
2022/04/30 10:20:35;;;;;;;;;;;12.90;99.90;;;;;;5045356;28;20059;-71
2022/04/30 10:23:02;;;;;;;;;;;12.90;99.90;;;;;;5033944;28;20342;-70
2022/04/30 10:25:40;;;;;;;;;;;12.80;99.90;;;;;;5048010;28;19909;-69
2022/04/30 10:28:19;;;;;;;;;;;12.80;99.90;;;;;;5044583;28;19925;-70
2022/04/30 10:30:57;;;;;;;;;;;12.80;99.90;;;;;;5052507;28;19921;-68
2022/04/30 10:33:22;;;;;;;;;;;13.10;99.90;;;;;;5047044;28;19909;-69
2022/04/30 10:35:49;;;;;;;;;;;13.40;99.90;;;;;;5048387;28;19924;-68
2022/04/30 10:38:18;;;;;;;;;;;13.60;99.90;;;;;;5047560;28;19912;-68
2022/04/30 10:40:48;;;;;;;;;;;13.70;99.90;;;;;;5031310;28;19909;-66
2022/04/30 10:43:18;;;;;;;;;;;14.00;99.90;;;;;;5043729;28;19917;-68
2022/04/30 10:45:43;;;;;;;;;;;14.00;99.90;;;;;;5045658;28;19967;-67
2022/04/30 10:48:12;;;;;;;;;;;13.80;99.90;;;;;;5045590;28;20359;-67
2022/04/30 10:50:40;;;;;;;;;;;13.80;99.90;;;;;;5046392;28;20041;-70
2022/04/30 10:53:06;;;;;;;;;;;13.70;99.90;;;;;;5031679;28;19995;-68
2022/04/30 10:55:32;;;;;;;;;;;13.70;99.90;;;;;;5039763;28;19913;-69
2022/04/30 10:58:01;;;;;;;;;;;13.90;99.90;;;;;;5047105;28;19908;-68
2022/04/30 11:00:27;;;;;;;;;;;14.20;99.00;;;;;;5038391;28;20294;-69
2022/04/30 11:02:52;;;;;;;;;;;14.40;97.70;;;;;;5049833;28;19913;-70
2022/04/30 11:05:24;;;;;;;;;;;14.50;97.10;;;;;;5049183;28;19965;-69
2022/04/30 11:07:50;;;;;;;;;;;14.40;97.20;;;;;;5049437;28;20348;-69
2022/04/30 11:10:15;;;;;;;;;;;14.50;97.00;;;;;;5042881;28;20019;-70
2022/04/30 11:12:41;;;;;;;;;;;14.60;96.40;;;;;;5042137;28;20282;-70
2022/04/30 11:15:10;;;;;;;;;;;14.50;96.10;;;;;;5049842;28;19977;-69
2022/04/30 11:17:47;;;;;;;;;;;14.50;96.40;;;;;;5046308;28;20389;-68
2022/04/30 11:20:22;;;;;;;;;;;14.60;97.00;;;;;;5025166;28;19988;-69
2022/04/30 11:22:52;;;;;;;;;;;14.80;96.70;;;;;;5046600;28;19916;-69
2022/04/30 11:25:17;;;;;;;;;;;14.90;96.00;;;;;;5028705;28;19920;-68
2022/04/30 11:27:43;;;;;;;;;;;14.90;96.00;;;;;;5047975;28;19913;-69
2022/04/30 11:30:09;;;;;;;;;;;15.00;95.80;;;;;;5036937;28;19963;-69
2022/04/30 11:32:34;;;;;;;;;;;15.10;95.80;;;;;;5042851;28;19915;-68
2022/04/30 11:35:01;;;;;;;;;;;15.20;95.50;;;;;;5043169;28;19915;-68
2022/04/30 11:37:28;;;;;;;;;;;15.10;95.40;;;;;;5047488;28;20319;-68
2022/04/30 11:39:53;;;;;;;;;;;15.20;95.40;;;;;;5032996;28;19928;-69
2022/04/30 11:42:28;;;;;;;;;;;15.40;95.30;;;;;;5050390;28;19912;-68
2022/04/30 11:44:54;;;;;;;;;;;15.70;94.60;;;;;;5046913;28;20011;-68
2022/04/30 11:47:20;;;;;;;;;;;15.70;94.50;;;;;;5030743;28;20343;-70
2022/04/30 11:49:48;;;;;;;;;;;15.50;94.60;;;;;;5017365;28;19909;-72
2022/04/30 11:52:14;;;;;;;;;;;15.70;94.40;;;;;;5046853;28;19913;-71
2022/04/30 11:54:40;;;;;;;;;;;15.60;94.40;;;;;;5042041;28;20247;-70
2022/04/30 11:57:06;;;;;;;;;;;15.70;94.20;;;;;;5048127;28;19923;-68
2022/04/30 11:59:34;;;;;;;;;;;15.80;94.40;;;;;;5039605;28;19924;-69
2022/04/30 12:02:03;;;;;;;;;;;16.00;93.90;;;;;;5041615;28;20326;-70
2022/04/30 12:04:33;;;;;;;;;;;15.90;93.50;;;;;;5043345;28;19919;-68
2022/04/30 12:06:59;;;;;;;;;;;16.00;93.60;;;;;;5037826;28;20003;-68
2022/04/30 12:09:28;;;;;;;;;;;16.10;93.30;;;;;;5042648;28;19917;-70
2022/04/30 12:11:53;;;;;;;;;;;16.40;93.30;;;;;;5041234;28;20388;-69
2022/04/30 12:14:19;;;;;;;;;;;16.40;92.20;;;;;;5026715;28;19908;-70
2022/04/30 12:16:46;;;;;;;;;;;16.30;92.10;;;;;;5035117;28;19917;-70
2022/04/30 12:25:07;;;;;;;;;;;16.60;92.20;;;;;;5041549;28;20289;-71
2022/04/30 12:27:33;;;;;;;;;;;16.40;91.90;;;;;;5037048;28;19912;-69
2022/04/30 12:30:12;;;;;;;;;;;16.10;92.20;;;;;;5027767;28;20245;-69
2022/04/30 12:32:49;;;;;;;;;;;16.00;92.40;;;;;;5025488;28;19999;-70
2022/04/30 12:35:16;;;;;;;;;;;15.90;92.80;;;;;;5046318;28;19915;-69
2022/04/30 12:37:42;;;;;;;;;;;16.00;92.90;;;;;;5035035;28;19917;-69
2022/04/30 12:40:08;;;;;;;;;;;16.30;92.80;;;;;;5014828;28;19955;-70
2022/04/30 12:42:34;;;;;;;;;;;16.70;92.30;;;;;;5039555;28;20307;-69
2022/04/30 12:45:00;;;;;;;;;;;17.20;91.30;;;;;;5028036;28;19917;-69
2022/04/30 12:47:25;;;;;;;;;;;17.40;90.70;;;;;;5037412;28;19915;-69
2022/04/30 12:49:51;;;;;;;;;;;17.50;90.10;;;;;;5031179;28;19913;-70
2022/04/30 12:52:17;;;;;;;;;;;17.30;89.30;;;;;;5037534;28;19909;-70
2022/04/30 12:54:42;;;;;;;;;;;17.10;89.80;;;;;;5029819;28;20317;-70
2022/04/30 12:57:08;;;;;;;;;;;17.20;89.60;;;;;;5041709;28;19917;-71
2022/04/30 12:59:34;;;;;;;;;;;17.40;89.50;;;;;;5041825;28;19909;-70
2022/04/30 13:02:03;;;;;;;;;;;17.50;89.60;;;;;;5044631;28;19916;-73
2022/04/30 13:04:29;;;;;;;;;;;17.80;89.40;;;;;;5023783;28;20350;-71
2022/04/30 13:06:55;;;;;;;;;;;18.20;88.80;;;;;;5032457;28;19917;-71
2022/04/30 13:14:50;;;;;;;;;;;18.80;85.60;;;;;;5044798;28;20037;-72
2022/04/30 13:17:15;;;;;;;;;;;18.90;84.80;;;;;;5042522;28;20394;-71
2022/04/30 13:19:41;;;;;;;;;;;18.30;85.70;;;;;;5044561;28;19921;-70
2022/04/30 13:22:06;;;;;;;;;;;17.90;87.20;;;;;;5047746;28;19916;-70
2022/04/30 13:24:33;;;;;;;;;;;17.60;87.50;;;;;;5016784;28;19913;-70
2022/04/30 13:26:59;;;;;;;;;;;17.70;88.00;;;;;;5021896;28;20347;-69
2022/04/30 13:29:25;;;;;;;;;;;17.50;86.60;;;;;;5035243;28;19989;-69
2022/04/30 13:31:51;;;;;;;;;;;17.70;86.90;;;;;;5039444;28;19968;-70
2022/04/30 13:34:22;;;;;;;;;;;18.00;86.50;;;;;;5027925;28;20022;-70
2022/04/30 13:36:51;;;;;;;;;;;18.10;84.70;;;;;;5041618;28;19983;-69
2022/04/30 13:39:16;;;;;;;;;;;18.00;85.50;;;;;;5044997;28;19999;-69
2022/04/30 13:41:42;;;;;;;;;;;18.00;85.50;;;;;;5028224;28;19999;-69
2022/04/30 13:44:09;;;;;;;;;;;18.30;83.40;;;;;;5026485;28;19913;-70
2022/04/30 13:46:36;;;;;;;;;;;18.20;84.40;;;;;;5039829;28;20003;-69
2022/04/30 13:49:03;;;;;;;;;;;18.30;84.90;;;;;;5035245;28;19963;-68
2022/04/30 13:51:29;;;;;;;;;;;18.50;84.40;;;;;;5039166;28;19908;-70
2022/04/30 13:53:54;;;;;;;;;;;18.40;84.50;;;;;;5045892;28;20264;-70
2022/04/30 13:56:20;;;;;;;;;;;18.30;85.10;;;;;;5052808;28;20294;-70
2022/04/30 13:58:46;;;;;;;;;;;18.50;85.60;;;;;;5041324;28;19955;-70
2022/04/30 14:01:12;;;;;;;;;;;18.70;84.80;;;;;;5049102;28;20490;-70
2022/04/30 14:03:38;;;;;;;;;;;18.80;84.80;;;;;;5031930;28;20003;-70
2022/04/30 14:06:03;;;;;;;;;;;18.80;84.20;;;;;;5040701;28;19908;-71
2022/04/30 14:08:29;;;;;;;;;;;18.90;83.40;;;;;;5046265;28;19920;-72
2022/04/30 14:10:54;;;;;;;;;;;18.80;83.10;;;;;;5045441;28;19944;-69
2022/04/30 14:16:05;;;;;;;;;;;18.80;82.30;;;;;;5043111;28;19994;-70
2022/04/30 14:18:32;;;;;;;;;;;18.80;81.30;;;;;;5041430;28;20366;-69
2022/04/30 14:20:58;;;;;;;;;;;18.90;81.10;;;;;;5043728;28;20421;-72
2022/04/30 14:23:24;;;;;;;;;;;18.70;81.30;;;;;;5044878;28;20000;-73
2022/04/30 14:25:49;;;;;;;;;;;18.90;81.70;;;;;;5045541;28;19981;-73
2022/04/30 14:28:19;;;;;;;;;;;19.20;81.50;;;;;;5046552;28;20362;-74
2022/04/30 14:30:45;;;;;;;;;;;19.10;81.20;;;;;;5040088;28;19904;-73
2022/04/30 14:33:11;;;;;;;;;;;18.90;81.30;;;;;;5048330;28;19912;-73
2022/04/30 14:35:41;;;;;;;;;;;18.80;81.30;;;;;;5045239;28;19905;-75
2022/04/30 14:38:08;;;;;;;;;;;18.70;81.10;;;;;;5051409;28;20223;-73
2022/04/30 14:40:44;;;;;;;;;;;18.70;80.90;;;;;;5048123;28;19909;-74
2022/04/30 14:43:10;;;;;;;;;;;18.80;81.20;;;;;;5046130;28;19952;-73
2022/04/30 14:45:37;;;;;;;;;;;19.10;80.40;;;;;;5044967;28;19950;-72
2022/04/30 14:48:03;;;;;;;;;;;19.30;79.40;;;;;;5043949;28;19913;-72
2022/04/30 14:50:29;;;;;;;;;;;19.10;79.50;;;;;;5040736;28;20010;-70
2022/04/30 14:52:54;;;;;;;;;;;19.10;79.10;;;;;;5048619;28;19908;-69
2022/04/30 14:55:20;;;;;;;;;;;19.30;78.70;;;;;;5041238;28;20359;-70
2022/04/30 14:57:45;;;;;;;;;;;19.60;78.80;;;;;;5038932;28;19917;-70
2022/04/30 15:00:11;;;;;;;;;;;19.40;78.50;;;;;;5041442;28;19962;-70
2022/04/30 15:02:37;;;;;;;;;;;19.50;78.10;;;;;;5031592;28;20282;-71
2022/04/30 15:05:03;;;;;;;;;;;19.90;76.70;;;;;;5023290;28;19913;-70
2022/04/30 15:07:28;;;;;;;;;;;20.40;75.60;;;;;;5029272;28;19905;-72
2022/04/30 15:09:58;;;;;;;;;;;20.60;75.00;;;;;;5015299;28;19922;-71
2022/04/30 15:12:24;;;;;;;;;;;20.50;74.60;;;;;;5014217;28;19994;-71
2022/04/30 15:14:49;;;;;;;;;;;21.00;73.90;;;;;;5023147;28;19913;-71